Tiempo atmosférico en la estación meteorológica de Villayón, Oneta, Asturias (410 m.)



Fecha
DESCASC
Temp. máxima en grados centígrados (hora)
DESCASC
Temp. mínima en grados centígrados (hora)
DESCASC
Temp. media en grados centígrados
DESCASC
Racha de viento máxima en m/sg (hora)
DESCASC
Velocidad máxima media en intervalos de 10 minutos(hora)
DESCASC
Precipitaciones diarias en mm
DESCASC
Precipitaciones de 00:00 a 06:00 en mm
DESCASC
Precipitaciones de 06:00 a 12:00 en mm
DESCASC
Precipitaciones de 12:00 a 18:00 en mm
DESCASC
Precipitaciones de 18:00 a 24:00 en mm
DESCASC
22-01-2020 8.5 (08:20) 5.4 (23:20) 7 15.83 (01:20) 8.89 (06:30) 7.8 0 0.6 2.6 4.6
21-01-2020 -- (--) -- (--) -- -- (--) -- (--) -- -- 1.2 1.8 0
20-01-2020 5.9 (13:00) 3.4 (09:30) 4.7 20.56 (11:20) 12.22 (01:40) 1.4 1.2 0.2 0 0
19-01-2020 7.6 (02:00) 5 (00:00) 6.3 19.44 (02:20) 12.78 (02:20) 12.4 9.6 2.8 0 0
18-01-2020 12 (11:50) 6.2 (00:00) 9.1 21.67 (13:50) 12.22 (13:50) 6.4 0 0 5 1.4
17-01-2020 10.2 (15:20) 5.5 (00:00) 7.8 12.78 (02:00) 6.39 (02:00) 1.4 0.4 1 0 0
16-01-2020 17.7 (13:30) 7.6 (00:00) 12.7 24.44 (09:50) 12.5 (10:00) 7.4 0 0 0.6 6.8
15-01-2020 14 (05:10) 7.6 (00:00) 10.8 20.83 (01:30) 10 (01:00) 8.2 0.4 7.8 0 0
14-01-2020 15.3 (15:30) 12.1 (00:00) 13.7 28.33 (08:50) 14.17 (14:30) 0.2 0 0 0.2 0
13-01-2020 14.9 (16:30) 8.4 (00:00) 11.6 21.94 (17:00) 10 (23:20) 0 0 0 0 0
12-01-2020 13.6 (15:10) 5.4 (00:00) 9.5 5 (04:10) 3.33 (08:40) 0 0 0 0 0
11-01-2020 12.9 (16:20) 3.1 (00:00) 8 4.17 (14:50) 2.78 (17:40) 0 0 0 0 0
10-01-2020 9 (15:00) 5.3 (00:00) 7.2 9.17 (15:20) 5 (15:20) 5.4 0.6 4.6 0.2 0
09-01-2020 15.8 (12:20) 7.1 (00:00) 11.5 17.22 (14:00) 9.44 (14:00) 2.8 0 0 2.6 0.2
08-01-2020 17.3 (15:30) 10 (00:00) 13.6 8.06 (21:00) 4.17 (22:20) 0 0 0 0 0
07-01-2020 14.6 (15:10) 5.2 (00:00) 9.9 3.89 (03:40) 3.06 (03:40) 0 0 0 0 0
06-01-2020 12.3 (16:50) 3.6 (00:00) 8 7.22 (14:40) 3.61 (15:40) 0 0 0 0 0
05-01-2020 10.8 (16:10) 1.7 (00:00) 6.3 6.39 (00:10) 4.17 (00:10) 0 0 0 0 0
04-01-2020 9.7 (16:20) 6.5 (00:00) 8.1 6.67 (23:59) 4.17 (18:10) 0 0 0 0 0
03-01-2020 10.8 (14:40) 7.7 (00:00) 9.3 10.83 (00:50) 4.17 (00:50) 0.4 0 0.4 0 0
02-01-2020 10.1 (13:30) 5.8 (00:00) 8 11.67 (22:50) 5.28 (22:50) 0 0 0 0 0
01-01-2020 10 (14:10) 1.4 (00:00) 5.7 4.44 (08:30) 3.06 (08:30) 0 0 0 0 0
31-12-2019 12.4 (14:10) 5.7 (00:00) 9 4.17 (10:20) 3.33 (10:20) 0 0 0 0 0
30-12-2019 -- (--) -- (--) -- -- (--) -- (--) -- 0 0 0 --
29-12-2019 18 (15:50) 9.7 (00:00) 13.8 6.11 (01:00) 4.44 (01:00) 0 0 0 0 0
28-12-2019 15.4 (15:00) 5.7 (00:00) 10.5 6.39 (03:10) 4.72 (03:10) 0 0 0 0 0
27-12-2019 12.5 (15:20) 3.2 (00:00) 7.9 4.72 (09:40) 2.5 (23:20) 0 0 0 0 0
26-12-2019 13.5 (00:00) 6.7 (00:00) 10.1 10.56 (01:50) 4.72 (05:10) 0 0 0 0 0

Gráficas

Temp. máximas Temp. mínimas Temp. medias Precipitaciones Rachas de viento máximas Velocidades máximas media en intervalos de 10 minutos

Datos horarios

Fecha y hora oficial Temperatura (ºC) Velocidad del viento (km/h) Dirección del viento Racha (km/h) Dirección de racha Precipitación (mm) Presión (hPa) Tendencia (hPa) Humedad (%)
2020-01-24 23:00:00 7.7 5 Este 8 Este 0 -- -- 82
2020-01-24 22:00:00 8.2 4 Noroeste 6 Nordeste 0 -- -- 79
2020-01-24 21:00:00 8.2 2 Sudeste 6 Este 0 -- -- 81
2020-01-24 20:00:00 8 2 Este 5 Sur 0 -- -- 85
2020-01-24 19:00:00 8.6 0 Calma 6 Noroeste 0 -- -- 79
2020-01-24 18:00:00 9.4 2 Norte 11 Noroeste 0 -- -- 75
2020-01-24 17:00:00 9.7 6 Oeste 10 Noroeste 0 -- -- 82
2020-01-24 16:00:00 11 6 Noroeste 10 Noroeste 0 -- -- 71
2020-01-24 15:00:00 11 4 Sur 9 Sudoeste 0 -- -- 70
2020-01-24 14:00:00 10.7 4 Sur 10 Sur 0 -- -- 71
2020-01-24 13:00:00 9.2 6 Sur 13 Sur 0 -- -- 76
2020-01-24 12:00:00 8.2 3 Sur 9 Sudoeste 0 -- -- 79
2020-01-24 11:00:00 7.6 3 Noroeste 6 Sudoeste 0 -- -- 75
2020-01-24 10:00:00 6.3 3 Sur 13 Sudoeste 0 -- -- 80
2020-01-24 09:00:00 6.3 4 Noroeste 10 Sur 0 -- -- 80
2020-01-24 08:00:00 6.3 10 Sudoeste 15 Sudoeste 0 -- -- 81
2020-01-24 07:00:00 6.4 8 Sudoeste 11 Sudoeste 0 -- -- 81
2020-01-24 06:00:00 6.3 0 Calma 6 Noroeste 0 -- -- 85
2020-01-24 05:00:00 6.3 3 Noroeste 7 Nordeste 0 -- -- 87
2020-01-24 04:00:00 6.4 4 Sudeste 14 Sudoeste 0 -- -- 87
2020-01-24 03:00:00 6.5 7 Sudoeste 14 Sudoeste 0 -- -- 86
2020-01-24 02:00:00 6.4 0 Calma 5 Oeste 0 -- -- 90
2020-01-24 01:00:00 6.3 2 Sudoeste 5 Sur 0 -- -- 89
2020-01-24 00:00:00 6.8 0 Calma 6 Este 0 -- -- 89
2020-01-23 23:00:00 6.4 4 Sudeste 7 Oeste 0 -- -- 90
2020-01-23 22:00:00 7.2 4 Noroeste 8 Oeste 0 -- -- 87
2020-01-23 21:00:00 7.9 2 Noroeste 10 Sudeste 0 -- -- 81
2020-01-23 20:00:00 7.4 3 Sudeste 5 Este 0 -- -- 94
2020-01-23 19:00:00 6.9 2 Oeste 6 Sudoeste 0 -- -- 100
2020-01-23 18:00:00 7.2 3 Sur 10 Noroeste 0 -- -- 97
2020-01-23 17:00:00 8.6 4 Sur 10 Noroeste 0 -- -- 92
2020-01-23 16:00:00 9.6 4 Noroeste 8 Sur 0 -- -- 82
2020-01-23 15:00:00 8.9 3 Oeste 7 Oeste 0 -- -- 89
2020-01-23 14:00:00 8.5 4 Noroeste 8 Sur 0 -- -- 83
2020-01-23 13:00:00 7.5 3 Oeste 9 Sudoeste 0 -- -- 86
2020-01-23 12:00:00 6.6 4 Sudoeste 13 Sudoeste 0 -- -- 85
2020-01-23 11:00:00 4.9 3 Sur 6 Noroeste 0 -- -- 98
2020-01-23 10:00:00 2.6 0 Calma 13 Sudoeste 0 -- -- 100
2020-01-23 09:00:00 2.8 3 Sur 12 Sudoeste 0 -- -- 97
2020-01-23 08:00:00 3.1 2 Sur 10 Sudoeste 0 -- -- 99
2020-01-23 07:00:00 3 4 Noroeste 8 Noroeste 0 -- -- 98
2020-01-23 06:00:00 4.4 5 Sudoeste 12 Sudoeste 0 -- -- 92
2020-01-23 05:00:00 6.4 5 Nordeste 14 Nordeste 0 -- -- 80
2020-01-23 04:00:00 6 8 Este 21 Sudeste 0 -- -- 85
2020-01-23 03:00:00 5.5 12 Este 22 Este 0 -- -- 89
2020-01-23 02:00:00 5.6 4 Norte 12 Este 0 -- -- 88
2020-01-23 01:00:00 5.6 12 Este 20 Este 0 -- -- 92
2020-01-23 00:00:00 5.6 5 Noroeste 23 Este 0 -- -- 96
2020-01-22 23:00:00 5.9 3 Noroeste 20 Este 0 -- -- 100
2020-01-22 22:00:00 6.9 13 Este 19 Este 0 -- -- 89
2020-01-22 21:00:00 6.2 8 Sudeste 15 Sudeste 0.6 -- -- 100
2020-01-22 20:00:00 6.5 4 Noroeste 13 Este 0.8 -- -- 100
2020-01-22 19:00:00 6.7 5 Este 15 Este 3.2 -- -- 98
2020-01-22 18:00:00 7.2 5 Este 26 Este 0.6 -- -- 92
2020-01-22 17:00:00 7.5 20 Este 34 Este 0.2 -- -- 88
2020-01-22 16:00:00 7.7 16 Este 27 Este 0.4 -- -- 88
2020-01-22 15:00:00 7.7 10 Este 24 Este 0.6 -- -- 93
2020-01-22 14:00:00 7.6 11 Nordeste 35 Este 0.6 -- -- 94
2020-01-22 13:00:00 7.8 22 Este 49 Nordeste 0.2 -- -- 93
2020-01-22 12:00:00 8 17 Nordeste 38 Este 0.2 -- -- 93
2020-01-22 11:00:00 8 28 Nordeste 46 Nordeste 0.4 -- -- 96
2020-01-22 10:00:00 7.9 13 Nordeste 39 Este 0 -- -- 93
2020-01-22 09:00:00 8.3 18 Este 53 Nordeste 0 -- -- 89
2020-01-22 08:00:00 8.4 24 Nordeste 51 Nordeste 0 -- -- 88
2020-01-22 07:00:00 8.2 24 Nordeste 55 Nordeste 0 -- -- 91
2020-01-22 06:00:00 8.1 22 Nordeste 52 Este 0 -- -- 92
2020-01-22 05:00:00 8 23 Nordeste 50 Nordeste 0 -- -- 90
2020-01-22 04:00:00 7.8 23 Nordeste 47 Este 0 -- -- 92
2020-01-22 03:00:00 7.1 21 Este 47 Este 0 -- -- 92
2020-01-22 02:00:00 6.4 18 Este 57 Este 0 -- -- 92
2020-01-22 01:00:00 6.2 27 Este 55 Este 0 -- -- 90
2020-01-22 00:00:00 5.9 24 Este 50 Este 0 -- -- 87
2020-01-21 23:00:00 6.2 32 Este 54 Este 0 -- -- 81
2020-01-21 22:00:00 5.7 19 Este 48 Este 0 -- -- 85
2020-01-21 21:00:00 5.7 26 Este 49 Este 0 -- -- 85
2020-01-21 20:00:00 5.5 22 Este 51 Nordeste 0 -- -- 85
2020-01-21 19:00:00 5.6 25 Este 55 Este 0 -- -- 86
2020-01-21 18:00:00 5 15 Este 42 Este 0.2 -- -- 94
2020-01-21 17:00:00 4.7 21 Este 42 Nordeste 0.2 -- -- 93
2020-01-21 16:00:00 4.7 11 Este 39 Este 0.2 -- -- 96
2020-01-21 15:00:00 5 17 Este 51 Este 1 -- -- 95
2020-01-21 14:00:00 5.3 22 Nordeste 39 Nordeste 0.2 -- -- 92
2020-01-21 13:00:00 5.6 18 Nordeste 39 Nordeste 0 -- -- 88
2020-01-21 12:00:00 5 18 Nordeste 39 Nordeste 0 -- -- 90
2020-01-21 11:00:00 4.3 15 Este 34 Este 0.6 -- -- 91
2020-01-21 10:00:00 4.8 13 Este 36 Este 0 -- -- 89
2020-01-21 09:00:00 4.6 20 Nordeste 40 Nordeste 0.2 -- -- 91
2020-01-21 08:00:00 4.3 8 Este 36 Nordeste 0 -- -- 93
2020-01-21 07:00:00 4.1 19 Este 48 Nordeste 0.4 -- -- 93
2020-01-21 06:00:00 -- -- -- -- -- -- -- -- --
2020-01-21 05:00:00 -- -- -- -- -- -- -- -- --
2020-01-21 04:00:00 -- -- -- -- -- -- -- -- --
2020-01-21 03:00:00 -- -- -- -- -- -- -- -- --
2020-01-21 02:00:00 4.2 14 Este 39 Sudeste 0 -- -- 82
2020-01-21 01:00:00 4.1 14 Este 49 Nordeste 0 -- -- 81
2020-01-21 00:00:00 3.8 22 Este 41 Este 0 -- -- 82
2020-01-20 23:00:00 4.2 14 Este 41 Este 0 -- -- 75
2020-01-20 22:00:00 4 19 Este 52 Este 0 -- -- 71
2020-01-20 21:00:00 4.1 22 Este 39 Nordeste 0 -- -- 73
2020-01-20 20:00:00 4 22 Este 44 Este 0 -- -- 74
2020-01-20 19:00:00 4.1 22 Este 44 Este 0 -- -- 75
2020-01-20 18:00:00 4.4 13 Este 60 Nordeste 0 -- -- 73
2020-01-20 17:00:00 5.2 29 Este 58 Este 0 -- -- 72
2020-01-20 16:00:00 5.3 31 Nordeste 57 Nordeste 0 -- -- 74
2020-01-20 15:00:00 4.2 35 Este 62 Este 0 -- -- 85
2020-01-20 14:00:00 5.5 35 Nordeste 64 Nordeste 0 -- -- 74
2020-01-20 13:00:00 5.9 19 Este 65 Este 0 -- -- 72
2020-01-20 12:00:00 5 29 Este 74 Nordeste 0 -- -- 73
2020-01-20 11:00:00 4.8 36 Este 72 Este 0 -- -- 73
2020-01-20 10:00:00 4.1 24 Este 55 Este 0.2 -- -- 81
2020-01-20 09:00:00 4.5 24 Este 49 Nordeste 0 -- -- 75
2020-01-20 08:00:00 4.6 35 Nordeste 60 Este 0 -- -- 77
2020-01-20 07:00:00 4.4 30 Este 60 Nordeste 0 -- -- 79
2020-01-20 06:00:00 4.5 33 Este 59 Este 0.2 -- -- 81
2020-01-20 05:00:00 4 23 Nordeste 46 Nordeste 0.6 -- -- 90
2020-01-20 04:00:00 4.1 23 Nordeste 59 Nordeste 0.2 -- -- 88
2020-01-20 03:00:00 5.1 32 Este 59 Nordeste 0 -- -- 75
2020-01-20 02:00:00 4.5 29 Este 67 Nordeste 0.2 -- -- 84
2020-01-20 01:00:00 5.6 31 Nordeste 69 Nordeste 0 -- -- 72
2020-01-20 00:00:00 5.8 31 Nordeste 66 Nordeste 0 -- -- 73
2020-01-19 23:00:00 5.8 33 Nordeste 62 Norte 0 -- -- 73
2020-01-19 22:00:00 5.6 27 Nordeste 66 Nordeste 0 -- -- 77
2020-01-19 21:00:00 5.7 32 Nordeste 54 Nordeste 0 -- -- 75
2020-01-19 20:00:00 5.5 27 Nordeste 53 Nordeste 0 -- -- 73
2020-01-19 19:00:00 5.5 25 Nordeste 49 Este 0 -- -- 75
2020-01-19 18:00:00 5.8 31 Este 53 Nordeste 0 -- -- 73
2020-01-19 17:00:00 6.6 30 Nordeste 59 Nordeste 0 -- -- 74
2020-01-19 16:00:00 6.7 38 Nordeste 60 Nordeste 0 -- -- 73
2020-01-19 15:00:00 7 33 Nordeste 52 Nordeste 0 -- -- 77
2020-01-19 14:00:00 7.5 30 Este 49 Este 0 -- -- 77
2020-01-19 13:00:00 7.3 26 Nordeste 48 Nordeste 0 -- -- 81
2020-01-19 12:00:00 6.8 21 Nordeste 40 Nordeste 0.2 -- -- 92
2020-01-19 11:00:00 5.6 21 Este 36 Sudeste 0.6 -- -- 95
2020-01-19 10:00:00 5 21 Este 39 Nordeste 1.6 -- -- 97
2020-01-19 09:00:00 6.3 22 Nordeste 41 Nordeste 0 -- -- 88
2020-01-19 08:00:00 6 26 Nordeste 45 Nordeste 0 -- -- 98
2020-01-19 07:00:00 6 23 Nordeste 58 Nordeste 0.4 -- -- 100
2020-01-19 06:00:00 5.7 30 Nordeste 55 Nordeste 2.2 -- -- 100
2020-01-19 05:00:00 6.1 27 Nordeste 60 Nordeste 1.2 -- -- 100
2020-01-19 04:00:00 6.3 33 Nordeste 63 Norte 2 -- -- 100
2020-01-19 03:00:00 6.9 28 Nordeste 70 Norte 0.8 -- -- 100
2020-01-19 02:00:00 7.6 11 Norte 41 Norte 3 -- -- 100
2020-01-19 01:00:00 7 7 Sudeste 15 Sudoeste 0.4 -- -- 100
2020-01-19 00:00:00 6.7 6 Sudoeste 21 Sudoeste 0.2 -- -- 99
2020-01-18 23:00:00 6.5 6 Noroeste 14 Sudoeste 0.8 -- -- 98
2020-01-18 22:00:00 6.4 5 Oeste 16 Noroeste 0.4 -- -- 96
2020-01-18 21:00:00 7 6 Noroeste 16 Noroeste 0 -- -- 90
2020-01-18 20:00:00 7.3 5 Noroeste 22 Sur 0 -- -- 90
2020-01-18 19:00:00 7.1 5 Oeste 26 Sur 0 -- -- 90
2020-01-18 18:00:00 6.3 8 Sur 53 Noroeste 1.4 -- -- 98
2020-01-18 17:00:00 9.8 10 Oeste 30 Noroeste 0 -- -- 73
2020-01-18 16:00:00 9.3 20 Noroeste 41 Noroeste 0 -- -- 74
2020-01-18 15:00:00 8.7 14 Oeste 47 Oeste 1.4 -- -- 91
2020-01-18 14:00:00 7.4 32 Noroeste 78 Noroeste 2 -- -- 99
2020-01-18 13:00:00 11.7 10 Oeste 26 Sudoeste 0.2 -- -- 86
2020-01-18 12:00:00 11.9 8 Oeste 24 Oeste 0 -- -- 76
2020-01-18 11:00:00 11.2 8 Oeste 27 Oeste 0 -- -- 71
2020-01-18 10:00:00 9.3 17 Noroeste 27 Noroeste 0 -- -- 74
2020-01-18 09:00:00 8.1 7 Sur 16 Sudoeste 0 -- -- 75
2020-01-18 08:00:00 7.3 4 Este 8 Nordeste 0 -- -- 66
2020-01-18 07:00:00 6.9 4 Sur 13 Sur 0 -- -- 65
2020-01-18 06:00:00 7.6 2 Sudoeste 9 Este 0 -- -- 61
2020-01-18 05:00:00 7 5 Sur 10 Sudoeste 0 -- -- 67
2020-01-18 04:00:00 7.3 3 Noroeste 13 Este 0 -- -- 66
2020-01-18 03:00:00 7.7 6 Este 11 Este 0 -- -- 58
2020-01-18 02:00:00 7.8 5 Nordeste 13 Este 0 -- -- 61
2020-01-18 01:00:00 7 6 Este 9 Este 0 -- -- 71
2020-01-18 00:00:00 7.1 7 Este 12 Este 0 -- -- 71
2020-01-17 23:00:00 7.3 2 Norte 9 Este 0 -- -- 68
2020-01-17 22:00:00 7.2 4 Sudeste 8 Este 0 -- -- 71
2020-01-17 21:00:00 7 4 Nordeste 12 Este 0 -- -- 72
2020-01-17 20:00:00 6.8 2 Este 6 Sudeste 0 -- -- 76
2020-01-17 19:00:00 7 3 Sudeste 10 Sur 0 -- -- 79
2020-01-17 18:00:00 7.5 5 Oeste 17 Oeste 0 -- -- 77
2020-01-17 17:00:00 8.2 3 Noroeste 18 Noroeste 0 -- -- 76
2020-01-17 16:00:00 8.7 12 Noroeste 22 Oeste 0 -- -- 74
2020-01-17 15:00:00 9.7 8 Noroeste 22 Sudoeste 0 -- -- 72
2020-01-17 14:00:00 9.6 8 Oeste 23 Sudoeste 0 -- -- 73
2020-01-17 13:00:00 8.5 8 Oeste 23 Sudoeste 0 -- -- 79
2020-01-17 12:00:00 6.8 9 Oeste 26 Sudoeste 0 -- -- 84
2020-01-17 11:00:00 6 5 Noroeste 28 Sudoeste 0.2 -- -- 89
2020-01-17 10:00:00 6.5 10 Sudoeste 30 Sur 0.2 -- -- 82
2020-01-17 09:00:00 6.1 7 Sudoeste 31 Sur 0 -- -- 84
2020-01-17 08:00:00 5.5 8 Noroeste 36 Noroeste 0.6 -- -- 92
2020-01-17 07:00:00 7.1 4 Noroeste 23 Sudoeste 0 -- -- 82
2020-01-17 06:00:00 7.1 7 Oeste 27 Sur 0 -- -- 84
2020-01-17 05:00:00 7.4 4 Oeste 23 Sudoeste 0.2 -- -- 86
2020-01-17 04:00:00 7.3 8 Sudoeste 27 Oeste 0 -- -- 86
2020-01-17 03:00:00 7.6 13 Sudoeste 32 Sudoeste 0 -- -- 84
2020-01-17 02:00:00 8.6 23 Noroeste 46 Noroeste 0.2 -- -- 86
2020-01-17 01:00:00 9.5 10 Oeste 34 Sudoeste 0 -- -- 79
2020-01-17 00:00:00 9.2 8 Noroeste 32 Sudoeste 0 -- -- 81
2020-01-16 23:00:00 9.2 9 Noroeste 36 Sur 0 -- -- 83
2020-01-16 22:00:00 8.7 15 Oeste 33 Oeste 0 -- -- 87
2020-01-16 21:00:00 8.6 16 Sudoeste 50 Sur 0 -- -- 84
2020-01-16 20:00:00 7.9 33 Sur 49 Sur 3.6 -- -- 88
2020-01-16 19:00:00 9.2 13 Oeste 33 Noroeste 3.2 -- -- 86
2020-01-16 18:00:00 11.6 8 Oeste 35 Sur 0.6 -- -- 80
2020-01-16 17:00:00 14.2 14 Sudoeste 54 Sudeste 0 -- -- 62
2020-01-16 16:00:00 15.4 16 Sur 52 Sudoeste 0 -- -- 56
2020-01-16 15:00:00 16.3 19 Sudoeste 61 Sur 0 -- -- 55
2020-01-16 14:00:00 16.8 28 Sur 83 Sudoeste 0 -- -- 54
2020-01-16 13:00:00 17.2 24 Sur 63 Sur 0 -- -- 52
2020-01-16 12:00:00 17.3 29 Sur 69 Sur 0 -- -- 53
2020-01-16 11:00:00 16.6 27 Sur 72 Sur 0 -- -- 56
2020-01-16 10:00:00 15.6 45 Sur 88 Sur 0 -- -- 53
2020-01-16 09:00:00 15.2 22 Sur 78 Sur 0 -- -- 58
2020-01-16 08:00:00 15 14 Sur 66 Sur 0 -- -- 62
2020-01-16 07:00:00 15.2 25 Sur 49 Sur 0 -- -- 63
2020-01-16 06:00:00 15.3 12 Sudoeste 40 Sur 0 -- -- 60
2020-01-16 05:00:00 15.5 23 Sur 50 Sudeste 0 -- -- 55
2020-01-16 04:00:00 15 26 Sur 58 Sur 0 -- -- 55
2020-01-16 03:00:00 14.7 32 Sur 57 Sudoeste 0 -- -- 56
2020-01-16 02:00:00 14.3 22 Sur 42 Sudoeste 0 -- -- 63
2020-01-16 01:00:00 14.6 21 Sur 45 Sur 0 -- -- 60
2020-01-16 00:00:00 12.8 20 Sur 36 Sur 0 -- -- 67
2020-01-15 23:00:00 11 5 Noroeste 13 Noroeste 0 -- -- 65
2020-01-15 22:00:00 10.9 8 Noroeste 12 Noroeste 0 -- -- 68
2020-01-15 21:00:00 11.4 4 Sudeste 8 Este 0 -- -- 59
2020-01-15 20:00:00 9.1 4 Sudeste 8 Este 0 -- -- 84
2020-01-15 19:00:00 7.8 0 Calma 6 Sudeste 0 -- -- 98
2020-01-15 18:00:00 8.8 3 Noroeste 11 Oeste 0 -- -- 93
2020-01-15 17:00:00 9.8 12 Este 23 Este 0 -- -- 91
2020-01-15 16:00:00 11.7 3 Oeste 19 Sudoeste 0 -- -- 82
2020-01-15 15:00:00 12.6 5 Oeste 20 Sudoeste 0 -- -- 76
2020-01-15 14:00:00 11.5 5 Norte 18 Oeste 0 -- -- 81
2020-01-15 13:00:00 10.9 4 Sudoeste 10 Noroeste 0 -- -- 89
2020-01-15 12:00:00 9.8 5 Noroeste 8 Oeste 0 -- -- 96
2020-01-15 11:00:00 9.5 3 Noroeste 11 Sudoeste 0 -- -- 94
2020-01-15 10:00:00 8.9 4 Noroeste 18 Sudoeste 0 -- -- 95
2020-01-15 09:00:00 9 7 Oeste 29 Oeste 1.6 -- -- 92
2020-01-15 08:00:00 9.2 10 Oeste 31 Noroeste 5.2 -- -- 99
2020-01-15 07:00:00 10.9 13 Oeste 40 Sur 1 -- -- 86
2020-01-15 06:00:00 11.6 13 Sudoeste 55 Oeste 0.4 -- -- 80
2020-01-15 05:00:00 13.9 20 Sudoeste 64 Sur 0 -- -- 57
2020-01-15 04:00:00 13.5 26 Sudoeste 72 Sur 0 -- -- 62
2020-01-15 03:00:00 13.6 23 Sudoeste 67 Sur 0 -- -- 61
2020-01-15 02:00:00 13.4 16 Sur 75 Sur 0 -- -- 62
2020-01-15 01:00:00 13.5 36 Sur 58 Sur 0 -- -- 61
2020-01-15 00:00:00 13.3 27 Sur 72 Sur 0 -- -- 56
2020-01-14 23:00:00 13 32 Sur 77 Sudoeste 0 -- -- 55
2020-01-14 22:00:00 13 41 Sur 72 Sur 0 -- -- 57
2020-01-14 21:00:00 12.7 26 Sur 56 Sur 0 -- -- 59
2020-01-14 20:00:00 13.2 31 Sur 68 Sur 0 -- -- 54
2020-01-14 19:00:00 12.9 38 Sur 78 Sur 0 -- -- 56
2020-01-14 18:00:00 13 26 Sudoeste 72 Sur 0 -- -- 61
2020-01-14 17:00:00 14.5 30 Sudoeste 78 Sudoeste 0 -- -- 55
2020-01-14 16:00:00 15.2 48 Sur 95 Sur 0 -- -- 50
2020-01-14 15:00:00 14.1 47 Sur 99 Sur 0 -- -- 53
2020-01-14 14:00:00 13.5 32 Sur 96 Sur 0 -- -- 53
2020-01-14 13:00:00 12.9 47 Sur 91 Sur 0.2 -- -- 55
2020-01-14 12:00:00 12.8 35 Sur 77 Sur 0 -- -- 56
2020-01-14 11:00:00 12.2 32 Sudoeste 80 Sudoeste 0 -- -- 58
2020-01-14 10:00:00 12.2 33 Sudoeste 87 Sur 0 -- -- 61
2020-01-14 09:00:00 12.3 46 Sudoeste 102 Sudoeste 0 -- -- 61
2020-01-14 08:00:00 12.4 25 Sudoeste 62 Sur 0 -- -- 61
2020-01-14 07:00:00 12.3 18 Sudoeste 75 Sur 0 -- -- 63
2020-01-14 06:00:00 12.3 32 Sudoeste 74 Sur 0 -- -- 61
2020-01-14 05:00:00 12.1 24 Sudoeste 70 Sur 0 -- -- 63
2020-01-14 04:00:00 12.3 40 Sudoeste 80 Sur 0 -- -- 61
2020-01-14 03:00:00 12.2 32 Sudoeste 85 Sur 0 -- -- 61
2020-01-14 02:00:00 12.5 39 Sudoeste 90 Sudoeste 0 -- -- 61
2020-01-14 01:00:00 12.4 31 Sudoeste 81 Sur 0 -- -- 61
2020-01-14 00:00:00 12.1 33 Sudoeste 75 Sur 0 -- -- 63
2020-01-13 23:00:00 12.1 30 Sudoeste 66 Sudoeste 0 -- -- 62
2020-01-13 22:00:00 11.6 22 Sudoeste 66 Sur 0 -- -- 65
2020-01-13 21:00:00 11.5 29 Sudoeste 73 Sur 0 -- -- 64
2020-01-13 20:00:00 12.2 17 Sudoeste 40 Sudoeste 0 -- -- 58
2020-01-13 19:00:00 12.4 10 Sudoeste 50 Sur 0 -- -- 56
2020-01-13 18:00:00 13 17 Sudoeste 60 Sur 0 -- -- 50
2020-01-13 17:00:00 14.5 29 Sudoeste 79 Sur 0 -- -- 44
2020-01-13 16:00:00 14.1 24 Sudoeste 70 Sudoeste 0 -- -- 45
2020-01-13 15:00:00 13.4 8 Oeste 40 Sudoeste 0 -- -- 48
2020-01-13 14:00:00 14 14 Sudoeste 47 Sudoeste 0 -- -- 52
2020-01-13 13:00:00 13.5 10 Oeste 27 Sudoeste 0 -- -- 59
2020-01-13 12:00:00 12.2 7 Noroeste 27 Sudoeste 0 -- -- 63
2020-01-13 11:00:00 12 11 Sur 22 Sur 0 -- -- 64
2020-01-13 10:00:00 8.7 6 Sudeste 12 Sur 0 -- -- 79
2020-01-13 09:00:00 9.1 4 Sur 13 Sudoeste 0 -- -- 76
2020-01-13 08:00:00 8.9 4 Sudoeste 15 Sur 0 -- -- 76
2020-01-13 07:00:00 8.4 7 Sudeste 12 Oeste 0 -- -- 79
2020-01-13 06:00:00 9.2 4 Sur 14 Este 0 -- -- 76
2020-01-13 05:00:00 8.9 9 Sudeste 15 Sudeste 0 -- -- 78
2020-01-13 04:00:00 8.7 5 Este 9 Sudeste 0 -- -- 78
2020-01-13 03:00:00 9.4 4 Sudeste 11 Sudeste 0 -- -- 76
2020-01-13 02:00:00 9.2 3 Norte 7 Sudeste 0 -- -- 75
2020-01-13 01:00:00 9.3 8 Sur 21 Sur 0 -- -- 74
2020-01-13 00:00:00 9.2 3 Sudeste 9 Sudeste 0 -- -- 75
2020-01-12 23:00:00 8.9 4 Sur 10 Sudoeste 0 -- -- 75
2020-01-12 22:00:00 9 0 Calma 10 Este 0 -- -- 75
2020-01-12 21:00:00 8.8 5 Sudoeste 8 Sudoeste 0 -- -- 76
2020-01-12 20:00:00 8.9 6 Sudeste 8 Sudeste 0 -- -- 77
2020-01-12 19:00:00 9.1 0 Calma 4 Este 0 -- -- 75
2020-01-12 18:00:00 10.1 4 Sudeste 9 Oeste 0 -- -- 72
2020-01-12 17:00:00 11.5 8 Noroeste 10 Oeste 0 -- -- 63
2020-01-12 16:00:00 12.6 5 Oeste 10 Sudeste 0 -- -- 61
2020-01-12 15:00:00 13.4 5 Sur 11 Sudeste 0 -- -- 60
2020-01-12 14:00:00 12.8 5 Sur 12 Sur 0 -- -- 59
2020-01-12 13:00:00 11.5 2 Sudeste 10 Sudoeste 0 -- -- 64
2020-01-12 12:00:00 10.1 5 Sur 10 Sudoeste 0 -- -- 64
2020-01-12 11:00:00 8.7 3 Este 13 Sur 0 -- -- 69
2020-01-12 10:00:00 5.5 10 Sur 15 Sur 0 -- -- 72
2020-01-12 09:00:00 5.9 4 Nordeste 16 Sudoeste 0 -- -- 68
2020-01-12 08:00:00 6.2 3 Noroeste 12 Sudoeste 0 -- -- 67
2020-01-12 07:00:00 6.1 4 Oeste 13 Sudoeste 0 -- -- 66
2020-01-12 06:00:00 5.9 3 Norte 12 Sur 0 -- -- 68
2020-01-12 05:00:00 5.7 2 Sudeste 18 Sudoeste 0 -- -- 69
2020-01-12 04:00:00 5.8 4 Sur 15 Sur 0 -- -- 72
2020-01-12 03:00:00 6.4 5 Sur 12 Sur 0 -- -- 71
2020-01-12 02:00:00 6.6 6 Oeste 15 Sudoeste 0 -- -- 71
2020-01-12 01:00:00 6.6 2 Oeste 11 Sudeste 0 -- -- 73
2020-01-12 00:00:00 6 5 Este 10 Oeste 0 -- -- 81
2020-01-11 23:00:00 5.9 5 Sudoeste 11 Sudoeste 0 -- -- 86
2020-01-11 22:00:00 7.1 4 Sudeste 10 Este 0 -- -- 81
2020-01-11 21:00:00 6.6 3 Sudeste 7 Este 0 -- -- 86
2020-01-11 20:00:00 7.2 0 Calma 7 Este 0 -- -- 86
2020-01-11 19:00:00 7.3 3 Noroeste 5 Sudeste 0 -- -- 87
2020-01-11 18:00:00 8.7 0 Calma 13 Noroeste 0 -- -- 84
2020-01-11 17:00:00 12.4 2 Sur 6 Sudeste 0 -- -- 62
2020-01-11 16:00:00 12.7 3 Sur 12 Sur 0 -- -- 62
2020-01-11 15:00:00 11.9 4 Sudoeste 15 Sudoeste 0 -- -- 62
2020-01-11 14:00:00 10.3 0 Calma 7 Sur 0 -- -- 66
2020-01-11 13:00:00 7.3 2 Nordeste 6 Sur 0 -- -- 77
2020-01-11 12:00:00 6.3 0 Calma 6 Sur 0 -- -- 80
2020-01-11 11:00:00 6.3 0 Calma 10 Sur 0 -- -- 81
2020-01-11 10:00:00 4.4 0 Calma 4 Este 0 -- -- 84
2020-01-11 09:00:00 3.7 4 Noroeste 10 Oeste 0 -- -- 88
2020-01-11 08:00:00 3.7 0 Calma 5 Sur 0 -- -- 89
2020-01-11 07:00:00 3.5 0 Calma 4 Este 0 -- -- 92
2020-01-11 06:00:00 3.4 2 Sudoeste 8 Sudoeste 0 -- -- 94
2020-01-11 05:00:00 3.8 0 Calma 5 Este 0 -- -- 93
2020-01-11 04:00:00 3.9 0 Calma 5 Noroeste 0 -- -- 93
2020-01-11 03:00:00 4 2 Este 10 Sudoeste 0 -- -- 93
2020-01-11 02:00:00 4.7 2 Este 5 Oeste 0 -- -- 89
2020-01-11 01:00:00 5 3 Sudeste 5 Sur 0 -- -- 88
2020-01-11 00:00:00 5.5 3 Este 7 Sur 0 -- -- 89
2020-01-10 23:00:00 5.8 6 Sur 10 Sudeste 0 -- -- 89
2020-01-10 22:00:00 5.9 3 Sur 12 Este 0 -- -- 88
2020-01-10 21:00:00 6 5 Este 8 Este 0 -- -- 91
2020-01-10 20:00:00 6.1 6 Este 13 Este 0 -- -- 93
2020-01-10 19:00:00 6.2 3 Este 15 Este 0 -- -- 90
2020-01-10 18:00:00 6.6 12 Este 21 Este 0 -- -- 91
2020-01-10 17:00:00 7.7 11 Este 15 Este 0 -- -- 89
2020-01-10 16:00:00 7.7 6 Nordeste 33 Noroeste 0 -- -- 92
2020-01-10 15:00:00 9 5 Noroeste 10 Norte 0 -- -- 86
2020-01-10 14:00:00 8.2 2 Noroeste 9 Noroeste 0.2 -- -- 93
2020-01-10 13:00:00 8.1 2 Sur 8 Noroeste 0 -- -- 96
2020-01-10 12:00:00 7.6 3 Noroeste 10 Noroeste 0.2 -- -- 95
2020-01-10 11:00:00 6.8 3 Sudeste 6 Sudeste 0.2 -- -- 99
2020-01-10 10:00:00 6.2 3 Sur 6 Sur 0.8 -- -- 100
2020-01-10 09:00:00 6.1 2 Este 8 Sudeste 2 -- -- 99
2020-01-10 08:00:00 6.3 4 Sur 11 Sudoeste 1.4 -- -- 95
2020-01-10 07:00:00 6.5 4 Sudoeste 10 Oeste 0 -- -- 92
2020-01-10 06:00:00 6.5 4 Oeste 19 Noroeste 0.2 -- -- 92
2020-01-10 05:00:00 6.5 4 Sudoeste 12 Noroeste 0 -- -- 91
2020-01-10 04:00:00 6.5 7 Noroeste 16 Norte 0 -- -- 89
2020-01-10 03:00:00 6.8 7 Oeste 17 Sudoeste 0 -- -- 83
2020-01-10 02:00:00 6.8 6 Oeste 26 Noroeste 0.2 -- -- 83
2020-01-10 01:00:00 6.7 8 Oeste 25 Oeste 0.2 -- -- 87
2020-01-10 00:00:00 7.1 10 Oeste 23 Noroeste 0.2 -- -- 87
2020-01-09 23:00:00 7.2 11 Oeste 25 Oeste 0 -- -- 86
2020-01-09 22:00:00 7.3 6 Noroeste 24 Sudoeste 0 -- -- 84
2020-01-09 21:00:00 7.6 9 Noroeste 29 Sudoeste 0 -- -- 80
2020-01-09 20:00:00 8 8 Noroeste 22 Sudoeste 0 -- -- 75
2020-01-09 19:00:00 8.1 6 Oeste 28 Oeste 0 -- -- 74
2020-01-09 18:00:00 8.4 9 Oeste 33 Sudoeste 0 -- -- 74
2020-01-09 17:00:00 9.3 12 Oeste 53 Oeste 0 -- -- 75
2020-01-09 16:00:00 8.7 14 Oeste 31 Sudoeste 0.2 -- -- 84
2020-01-09 15:00:00 9.1 19 Oeste 58 Noroeste 2 -- -- 88
2020-01-09 14:00:00 10.2 34 Noroeste 62 Norte 0.4 -- -- 93
2020-01-09 13:00:00 15.1 14 Oeste 62 Oeste 0 -- -- 70
2020-01-09 12:00:00 15.3 22 Sudoeste 48 Sudoeste 0 -- -- 72
2020-01-09 11:00:00 14.4 19 Sudoeste 54 Sudoeste 0 -- -- 75
2020-01-09 10:00:00 13.9 26 Sudoeste 52 Sudoeste 0 -- -- 75
2020-01-09 09:00:00 13.5 19 Sudoeste 54 Sur 0 -- -- 78
2020-01-09 08:00:00 13.7 21 Sudoeste 49 Sur 0 -- -- 77
2020-01-09 07:00:00 13.7 13 Sudoeste 42 Sudoeste 0 -- -- 79
2020-01-09 06:00:00 13.4 12 Sudoeste 39 Oeste 0 -- -- 82
2020-01-09 05:00:00 12.6 8 Sudoeste 28 Sudoeste 0 -- -- 85
2020-01-09 04:00:00 12.7 10 Sudoeste 27 Sur 0 -- -- 85
2020-01-09 03:00:00 13.2 15 Sudoeste 33 Sudoeste 0 -- -- 83
2020-01-09 02:00:00 13.4 14 Sudoeste 38 Sudoeste 0 -- -- 82
2020-01-09 01:00:00 13 8 Sudoeste 20 Sur 0 -- -- 83
2020-01-09 00:00:00 13.1 5 Noroeste 18 Oeste 0 -- -- 83
2020-01-08 23:00:00 13 7 Sudoeste 29 Sur 0 -- -- 84
2020-01-08 22:00:00 12.4 8 Sudeste 24 Sudoeste 0 -- -- 85
2020-01-08 21:00:00 13.4 14 Sur 29 Sur 0 -- -- 84
2020-01-08 20:00:00 12 2 Norte 7 Sudeste 0 -- -- 83
2020-01-08 19:00:00 12.6 2 Norte 6 Este 0 -- -- 82
2020-01-08 18:00:00 13.2 4 Nordeste 11 Oeste 0 -- -- 75
2020-01-08 17:00:00 15 5 Oeste 10 Oeste 0 -- -- 65
2020-01-08 16:00:00 16.6 2 Noroeste 6 Oeste 0 -- -- 64
2020-01-08 15:00:00 16.8 0 Calma 8 Sur 0 -- -- 64
2020-01-08 14:00:00 15.6 4 Sudoeste 10 Sur 0 -- -- 69
2020-01-08 13:00:00 15 3 Sur 12 Sudoeste 0 -- -- 64
2020-01-08 12:00:00 12.9 3 Sudoeste 8 Sudeste 0 -- -- 67
2020-01-08 11:00:00 11.3 4 Este 9 Sudeste 0 -- -- 71
2020-01-08 10:00:00 10.1 3 Sudoeste 10 Sur 0 -- -- 70
2020-01-08 09:00:00 10.1 6 Noroeste 11 Sur 0 -- -- 64
2020-01-08 08:00:00 10.2 8 Sur 15 Sudoeste 0 -- -- 63
2020-01-08 07:00:00 11.1 4 Este 8 Sur 0 -- -- 55
2020-01-08 06:00:00 10.5 0 Calma 5 Sudoeste 0 -- -- 52
2020-01-08 05:00:00 11.5 2 Sur 12 Este 0 -- -- 45
2020-01-08 04:00:00 11 0 Calma 12 Sudoeste 0 -- -- 50
2020-01-08 03:00:00 11.2 2 Sudoeste 12 Sudoeste 0 -- -- 49
2020-01-08 02:00:00 10.9 5 Sudoeste 12 Sudoeste 0 -- -- 50
2020-01-08 01:00:00 11.8 2 Sudoeste 9 Nordeste 0 -- -- 46
2020-01-08 00:00:00 11.2 5 Sudeste 11 Este 0 -- -- 50
2020-01-07 23:00:00 10.8 7 Sudoeste 9 Sudoeste 0 -- -- 55
2020-01-07 22:00:00 11.1 6 Sudoeste 12 Sudoeste 0 -- -- 53
2020-01-07 21:00:00 11.4 5 Este 11 Oeste 0 -- -- 48
2020-01-07 20:00:00 10.5 5 Sudoeste 12 Sudoeste 0 -- -- 57
2020-01-07 19:00:00 11.3 6 Este 8 Sudeste 0 -- -- 54
2020-01-07 18:00:00 11.1 0 Calma 7 Noroeste 0 -- -- 65
2020-01-07 17:00:00 12.5 3 Este 7 Sudeste 0 -- -- 50
2020-01-07 16:00:00 13.9 3 Sur 7 Sudeste 0 -- -- 51
2020-01-07 15:00:00 14.4 0 Calma 7 Sudeste 0 -- -- 51
2020-01-07 14:00:00 14.1 3 Sur 10 Sudeste 0 -- -- 43
2020-01-07 13:00:00 11.8 6 Sur 12 Sur 0 -- -- 50
2020-01-07 12:00:00 10.3 9 Sur 13 Sudoeste 0 -- -- 54
2020-01-07 11:00:00 8.5 4 Sur 8 Este 0 -- -- 55
2020-01-07 10:00:00 5.9 5 Sur 12 Sudoeste 0 -- -- 57
2020-01-07 09:00:00 6.5 4 Sudeste 9 Sudoeste 0 -- -- 54
2020-01-07 08:00:00 6.1 2 Norte 12 Sudoeste 0 -- -- 57
2020-01-07 07:00:00 5.9 2 Oeste 8 Noroeste 0 -- -- 60
2020-01-07 06:00:00 5.4 7 Noroeste 9 Norte 0 -- -- 68
2020-01-07 05:00:00 5.7 5 Sudeste 8 Sudoeste 0 -- -- 67
2020-01-07 04:00:00 5.9 5 Noroeste 14 Sudoeste 0 -- -- 69
2020-01-07 03:00:00 5.8 8 Este 10 Este 0 -- -- 71
2020-01-07 02:00:00 5.8 0 Calma 4 Sudoeste 0 -- -- 74
2020-01-07 01:00:00 6.9 0 Calma 8 Sudeste 0 -- -- 70
2020-01-07 00:00:00 6.9 0 Calma 14 Sudoeste 0 -- -- 71
2020-01-06 23:00:00 7.6 4 Sur 10 Este 0 -- -- 67
2020-01-06 22:00:00 8.1 2 Noroeste 8 Noroeste 0 -- -- 66
2020-01-06 21:00:00 8.6 3 Noroeste 14 Este 0 -- -- 66
2020-01-06 20:00:00 9.5 8 Este 12 Este 0 -- -- 58
2020-01-06 19:00:00 9.3 9 Sur 19 Sudeste 0 -- -- 60
2020-01-06 18:00:00 9.1 2 Noroeste 12 Noroeste 0 -- -- 72
2020-01-06 17:00:00 12.2 3 Noroeste 14 Sur 0 -- -- 51
2020-01-06 16:00:00 12 7 Oeste 26 Sudoeste 0 -- -- 53
2020-01-06 15:00:00 11.8 9 Sudoeste 26 Sur 0 -- -- 53
2020-01-06 14:00:00 10 8 Sudeste 17 Sur 0 -- -- 60
2020-01-06 13:00:00 8.4 4 Oeste 10 Sur 0 -- -- 77
2020-01-06 12:00:00 8.1 6 Noroeste 11 Sur 0 -- -- 75
2020-01-06 11:00:00 8.7 4 Oeste 14 Este 0 -- -- 62
2020-01-06 10:00:00 4.6 11 Este 19 Sudoeste 0 -- -- 79